Saturday, October 25, 2014, 6:08 AM EDT

KNHK, Nas Patuxent River Md

Location: Patuxent River, MD, United States Lat: 38.3
Local Time: 6:08 AM EDT (10:08 GMT) Lon: -76.4
Time Zone: US/Eastern Elev: 39 ft

Show me the last for .
Show Decoded

2014-10-25 05:52 METAR KNHK 250952Z AUTO 29003KT 10SM CLR 09/05 A2995 RMK AO2 SLP142 T00940050 $
                 =
2014-10-25 04:52 METAR KNHK 250852Z AUTO 33007KT 10SM CLR 11/05 A2995 RMK AO2 SLP141 T01110050
                 53001 $ =
2014-10-25 03:52 METAR KNHK 250752Z AUTO 33009KT 10SM CLR 12/06 A2994 RMK AO2 SLP138 T01170056 $
                 =
2014-10-25 02:52 METAR KNHK 250652Z AUTO 29007KT 10SM CLR 10/03 A2995 RMK AO2 SLP141 T01000033 $
                 =
2014-10-25 01:52 METAR KNHK 250552Z AUTO 29008KT 10SM CLR 11/03 A2994 RMK AO2 SLP140 T01060033
                 10139 20106 50002 $ =
2014-10-25 00:52 METAR KNHK 250452Z AUTO 28008KT 10SM CLR 11/03 A2995 RMK AO2 SLP141 T01110028
                 402000106 $ =
2014-10-24 23:52 METAR KNHK 250352Z AUTO 29008KT 10SM CLR 13/03 A2994 RMK AO2 SLP139 T01280028 $
                 =
2014-10-24 21:52 METAR KNHK 250152Z 30008KT 10SM BKN250 13/04 A2993 RMK AO2 SLP136 T01330044 $ =
2014-10-24 20:52 METAR KNHK 250052Z 29008KT 10SM BKN250 14/05 A2993 RMK AO2 SLP134 T01390050 $ =
2014-10-24 19:52 METAR KNHK 242352Z 26008KT 10SM BKN250 14/05 A2992 RMK AO2 SLP130 T01390050
                 10200 20139 53010 $ =
2014-10-24 18:52 METAR KNHK 242252Z 27008KT 10SM FEW150 BKN250 14/05 A2991 RMK AO2 SLP128
                 T01440050 $ =
2014-10-24 17:52 METAR KNHK 242152Z 26008KT 10SM FEW150 BKN250 17/06 A2989 RMK AO2 SLP122
                 T01670056 $ =
2014-10-24 16:52 METAR KNHK 242052Z 29011KT 10SM FEW150 BKN250 18/05 A2989 RMK AO2 SLP120
                 T01830050 55005 $ =
2014-10-24 15:52 METAR KNHK 241952Z 28011KT 10SM FEW150 BKN250 18/06 A2988 RMK AO2 WSHFT 1912
                 SLP120 T01830061 $ =
2014-10-24 15:30 METAR KNHK 241930Z 26012KT 10SM SCT150 BKN250 18/06 A2988 RMK AO2 WSHFT 1912
                 T01830061 =
2014-10-24 14:52 METAR KNHK 241852Z 32011KT 10SM SCT150 BKN250 19/07 A2988 RMK AO2 SLP119
                 T01890067 =
2014-10-24 13:52 METAR KNHK 241752Z 31011KT 10SM FEW150 SCT250 19/06 A2990 RMK AO2 SLP125
                 T01940061 10200 20117 58017 =
2014-10-24 12:52 METAR KNHK 241652Z 31015KT 10SM FEW150 SCT250 19/07 A2992 RMK AO2 SLP132
                 T01890067 =
2014-10-24 11:52 METAR KNHK 241552Z 31015G22KT 10SM SCT250 17/07 A2995 RMK AO2 SLP140 T01720067 =
2014-10-24 10:52 METAR KNHK 241452Z 32016G21KT 10SM FEW150 BKN250 16/07 A2995 RMK AO2 SLP142
                 T01560067 50000 =
2014-10-24 09:52 METAR KNHK 241352Z 31013KT 10SM FEW150 BKN250 15/07 A2996 RMK AO2 SLP145
                 T01500067 =
2014-10-24 08:52 METAR KNHK 241252Z 30012KT 10SM FEW150 BKN250 13/06 A2996 RMK AO2 SLP145
                 T01280061 =
2014-10-24 07:52 METAR KNHK 241152Z 28012KT 10SM CLR 11/06 A2995 RMK AO2 SLP142 T01110056 10128
                 20111 53013 =
2014-10-24 06:52 METAR KNHK 241052Z 30009KT 10SM FEW250 12/06 A2993 RMK AO2 SLP134 T01170056 =

Support USWX by starting your Amazon purchase here.